Time;durP1;ratioP1;P1;durP2;ratioP2;P2;SDS_P1;SDS_P2;PMS_P1;PMS_P2;Temp;Humidity;BMP_temperature;BMP_pressure;BME280_temperature;BME280_humidity;BME280_pressure;Samples;Min_cycle;Max_cycle;Signal;HPM_P1;HPM_P2
2021/08/14 00:00:02;;;;;;;;;8.33;5.00;;;;;22.70;49.90;101998.28;5058479;28;45598;-85
2021/08/14 00:02:27;;;;;;;;;6.00;5.00;;;;;22.69;49.48;101992.94;5058204;28;46351;-88
2021/08/14 00:04:52;;;;;;;;;4.00;4.00;;;;;22.66;49.54;102001.91;5059008;28;45364;-88
2021/08/14 00:07:18;;;;;;;;;5.00;5.00;;;;;22.64;49.43;101998.31;5059087;28;45438;-85
2021/08/14 00:09:44;;;;;;;;;4.67;4.00;;;;;22.56;49.93;101988.63;5059613;28;45422;-88
2021/08/14 00:12:10;;;;;;;;;5.33;4.00;;;;;22.61;49.81;102003.75;5057944;28;46173;-86
2021/08/14 00:14:35;;;;;;;;;8.67;5.00;;;;;22.58;49.88;101991.25;5057962;28;45850;-86
2021/08/14 00:17:01;;;;;;;;;5.33;4.67;;;;;22.58;49.82;101993.06;5058304;28;45287;-85
2021/08/14 00:19:26;;;;;;;;;7.67;6.00;;;;;22.56;49.50;101999.34;5057828;28;45469;-85
2021/08/14 00:21:52;;;;;;;;;7.33;4.00;;;;;22.51;49.43;101985.09;5056360;28;47417;-88
2021/08/14 00:24:18;;;;;;;;;5.00;5.00;;;;;22.51;49.31;101989.56;5057859;28;45328;-85
2021/08/14 00:26:43;;;;;;;;;5.67;4.00;;;;;22.49;49.75;101986.00;5057952;28;45402;-89
2021/08/14 00:29:08;;;;;;;;;7.67;5.00;;;;;22.49;49.69;101988.69;5058113;28;45357;-87
2021/08/14 00:31:34;;;;;;;;;10.67;4.67;;;;;22.47;49.36;101986.03;5058011;28;45565;-88
2021/08/14 00:33:59;;;;;;;;;7.67;4.00;;;;;22.44;49.40;101980.75;5056445;28;45386;-85
2021/08/14 00:36:24;;;;;;;;;5.33;5.00;;;;;22.39;49.51;101982.56;5057720;28;45810;-88
2021/08/14 00:38:50;;;;;;;;;7.00;5.00;;;;;22.36;49.83;101983.50;5058026;28;45270;-85
2021/08/14 00:41:16;;;;;;;;;3.33;3.00;;;;;22.34;49.57;101977.25;5057664;28;45341;-87
2021/08/14 00:43:43;;;;;;;;;5.00;3.67;;;;;22.29;49.84;101974.63;5057614;28;45314;-85
2021/08/14 00:46:09;;;;;;;;;6.33;4.00;;;;;22.29;49.89;101989.84;5057401;28;45409;-89
2021/08/14 00:48:35;;;;;;;;;6.00;4.00;;;;;22.27;49.70;101987.16;5057371;28;45315;-85
2021/08/14 00:51:02;;;;;;;;;3.00;3.00;;;;;22.24;49.83;101987.22;5057203;28;45474;-85
2021/08/14 00:53:27;;;;;;;;;4.00;4.00;;;;;22.19;49.21;101972.97;5057494;28;45374;-85
2021/08/14 00:55:54;;;;;;;;;3.67;2.00;;;;;22.13;49.57;101970.38;5057509;28;45406;-85
2021/08/14 00:58:20;;;;;;;;;4.00;2.67;;;;;22.18;49.75;101981.94;5058662;28;45291;-86
2021/08/14 01:00:46;;;;;;;;;7.33;3.00;;;;;22.15;49.41;101981.94;5057881;28;45494;-86
2021/08/14 01:03:13;;;;;;;;;5.67;3.00;;;;;22.09;49.39;101985.59;5056589;28;45357;-85
2021/08/14 01:05:45;;;;;;;;;6.00;4.00;;;;;22.06;49.31;101983.81;5056126;28;45519;-87
2021/08/14 01:08:13;;;;;;;;;4.00;3.67;;;;;22.07;49.17;101993.66;5057921;28;45458;-87
2021/08/14 01:10:38;;;;;;;;;5.67;3.67;;;;;22.00;49.08;101983.03;5056755;28;45554;-86
2021/08/14 01:13:04;;;;;;;;;5.67;5.00;;;;;22.03;49.43;101988.34;5056727;28;45478;-87
2021/08/14 01:15:30;;;;;;;;;4.67;4.00;;;;;21.95;49.31;101977.72;5057257;28;45364;-87
2021/08/14 01:17:57;;;;;;;;;3.67;3.00;;;;;21.95;49.17;101985.75;5057779;28;45283;-87
2021/08/14 01:20:22;;;;;;;;;5.67;5.00;;;;;21.86;49.63;101970.66;5055557;28;47476;-86
2021/08/14 01:22:48;;;;;;;;;5.67;4.00;;;;;21.83;49.61;101973.31;5057155;28;45303;-85
2021/08/14 01:25:13;;;;;;;;;5.33;3.33;;;;;21.78;49.53;101962.69;5057111;28;45328;-85
2021/08/14 01:27:39;;;;;;;;;5.00;4.00;;;;;21.84;49.64;101972.47;5057637;28;45342;-86
2021/08/14 01:30:06;;;;;;;;;6.00;3.67;;;;;21.81;49.72;101970.69;5056789;28;46234;-87
2021/08/14 01:32:32;;;;;;;;;5.00;4.33;;;;;21.78;49.89;101962.69;5057127;28;45505;-88
2021/08/14 01:35:01;;;;;;;;;5.00;4.00;;;;;21.72;49.84;101962.75;5057066;28;45389;-85
2021/08/14 01:37:34;;;;;;;;;3.00;3.00;;;;;21.74;50.03;101974.34;5057343;28;45196;-86
2021/08/14 01:40:00;;;;;;;;;5.67;3.33;;;;;21.69;49.75;101969.03;5056664;28;45670;-86
2021/08/14 01:42:26;;;;;;;;;4.00;4.00;;;;;21.67;49.72;101968.16;5057248;28;45304;-86
2021/08/14 01:44:52;;;;;;;;;3.33;3.33;;;;;21.64;49.90;101974.41;5057469;28;45271;-85
2021/08/14 01:47:17;;;;;;;;;9.33;2.33;;;;;21.62;50.14;101961.94;5058070;28;45215;-87
2021/08/14 01:49:43;;;;;;;;;4.33;4.00;;;;;21.58;49.98;101966.44;5056991;28;45422;-87
2021/08/14 01:52:14;;;;;;;;;4.00;4.00;;;;;21.57;50.02;101964.69;5055884;28;45558;-86
2021/08/14 01:54:40;;;;;;;;;4.00;2.00;;;;;21.55;50.01;101963.81;5057216;28;45320;-86
2021/08/14 01:57:06;;;;;;;;;7.67;3.67;;;;;21.52;50.18;101964.72;5056930;28;45331;-88
2021/08/14 01:59:35;;;;;;;;;6.00;3.33;;;;;21.43;50.33;101945.19;5057708;28;45423;-86
2021/08/14 02:02:03;;;;;;;;;2.00;2.00;;;;;21.51;50.18;101962.06;5063303;28;45359;-87
2021/08/14 02:04:28;;;;;;;;;5.67;5.00;;;;;21.46;50.12;101955.84;5061650;28;45297;-86
2021/08/14 02:06:54;;;;;;;;;9.00;4.33;;;;;21.43;50.07;101953.22;5056584;28;45357;-89
2021/08/14 02:09:19;;;;;;;;;2.67;2.33;;;;;21.41;50.29;101961.22;5056759;28;45994;-86
2021/08/14 02:11:45;;;;;;;;;4.33;3.00;;;;;21.37;50.28;101957.72;5056473;28;45459;-87
2021/08/14 02:14:11;;;;;;;;;5.00;4.00;;;;;21.38;50.45;101953.25;5056952;28;45236;-86
2021/08/14 02:16:37;;;;;;;;;6.67;4.00;;;;;21.39;50.48;101955.00;5059228;28;45316;-86
2021/08/14 02:19:03;;;;;;;;;7.33;4.00;;;;;21.35;50.05;101953.25;5060485;28;46049;-87
2021/08/14 02:21:29;;;;;;;;;5.00;4.00;;;;;21.30;50.50;101945.28;5060114;28;45501;-86
2021/08/14 02:23:56;;;;;;;;;3.67;3.00;;;;;21.24;50.22;101934.63;5060026;28;45328;-86
2021/08/14 02:26:22;;;;;;;;;5.33;3.00;;;;;21.26;50.22;101943.53;5059759;28;45466;-86
2021/08/14 02:28:48;;;;;;;;;6.33;3.33;;;;;21.29;50.32;101943.50;5058686;28;47820;-86
2021/08/14 02:31:13;;;;;;;;;3.67;3.00;;;;;21.26;50.23;101952.44;5060055;28;45491;-88
2021/08/14 02:33:39;;;;;;;;;5.00;2.67;;;;;21.22;50.67;101944.44;5060087;28;45359;-86
2021/08/14 02:36:06;;;;;;;;;4.00;3.00;;;;;21.23;50.13;101948.91;5062748;28;45295;-85
2021/08/14 02:38:35;;;;;;;;;7.00;3.00;;;;;21.20;50.34;101943.56;5065967;28;45453;-85
2021/08/14 02:41:02;;;;;;;;;3.67;2.33;;;;;21.09;50.40;101923.16;5064616;28;45283;-85
2021/08/14 02:43:28;;;;;;;;;5.67;3.67;;;;;21.17;50.19;101948.03;5065487;28;45346;-87
2021/08/14 02:45:53;;;;;;;;;5.00;4.00;;;;;21.15;50.73;101938.28;5062049;28;45328;-86
2021/08/14 02:48:19;;;;;;;;;3.00;3.00;;;;;21.13;50.63;101940.09;5059871;28;46162;-86
2021/08/14 02:50:46;;;;;;;;;3.00;3.00;;;;;21.11;50.62;101941.88;5059665;28;45366;-85
2021/08/14 02:53:13;;;;;;;;;3.67;3.00;;;;;21.11;50.69;101932.06;5058705;28;45388;-86
2021/08/14 02:55:40;;;;;;;;;5.00;3.67;;;;;21.11;50.33;101932.06;5058416;28;45555;-85
2021/08/14 02:58:05;;;;;;;;;4.33;3.00;;;;;21.06;50.60;101925.88;5059920;28;47110;-87
2021/08/14 03:00:30;;;;;;;;;4.00;4.00;;;;;21.05;50.61;101929.44;5059186;28;45501;-85
2021/08/14 03:02:56;;;;;;;;;3.67;2.67;;;;;21.05;50.77;101932.09;5059592;28;45385;-86
2021/08/14 03:05:21;;;;;;;;;5.67;4.00;;;;;21.02;50.41;101927.69;5059628;28;45405;-86
2021/08/14 03:07:47;;;;;;;;;2.33;2.00;;;;;20.94;50.29;101910.75;5059013;28;46506;-87
2021/08/14 03:10:12;;;;;;;;;3.33;3.00;;;;;20.97;50.54;101923.22;5059382;28;45347;-88
2021/08/14 03:12:38;;;;;;;;;4.33;3.00;;;;;20.93;50.69;101920.59;5059388;28;45495;-86
2021/08/14 03:15:06;;;;;;;;;5.67;3.00;;;;;20.90;50.49;101915.25;5059735;28;45419;-87
2021/08/14 03:17:31;;;;;;;;;7.00;5.00;;;;;20.91;50.70;101914.38;5059791;28;46483;-86
2021/08/14 03:19:57;;;;;;;;;4.00;3.00;;;;;20.90;50.63;101915.25;5059989;28;44768;-88
2021/08/14 03:22:22;;;;;;;;;8.00;5.33;;;;;20.85;50.48;101919.75;5059917;28;45332;-85
2021/08/14 03:24:50;;;;;;;;;6.33;4.00;;;;;20.86;50.76;101918.84;5059728;28;45407;-85
2021/08/14 03:27:15;;;;;;;;;7.00;5.00;;;;;20.83;50.65;101913.53;5058555;28;45362;-85
2021/08/14 03:29:41;;;;;;;;;3.00;3.00;;;;;20.80;51.01;101906.41;5059164;28;45514;-85
2021/08/14 03:32:06;;;;;;;;;4.33;2.33;;;;;20.79;50.99;101917.13;5059357;28;45378;-86
2021/08/14 03:34:32;;;;;;;;;4.33;4.00;;;;;20.76;50.93;101906.44;5059040;28;45437;-85
2021/08/14 03:36:57;;;;;;;;;4.33;2.00;;;;;20.65;51.36;101887.81;5057441;28;48107;-85
2021/08/14 03:39:22;;;;;;;;;5.00;3.67;;;;;20.73;51.40;101907.34;5059123;28;45323;-87
2021/08/14 03:41:48;;;;;;;;;5.33;4.00;;;;;20.73;51.24;101906.47;5058993;28;45579;-87
2021/08/14 03:44:13;;;;;;;;;4.00;2.00;;;;;20.71;51.16;101898.44;5059505;28;45354;-86
2021/08/14 03:46:38;;;;;;;;;5.33;4.33;;;;;20.67;51.20;101892.25;5058334;28;46208;-87
2021/08/14 03:49:04;;;;;;;;;9.00;4.00;;;;;20.69;51.54;101902.91;5058670;28;45334;-88
2021/08/14 03:51:29;;;;;;;;;4.00;4.00;;;;;20.64;51.23;101900.31;5058746;28;45325;-87
2021/08/14 03:53:55;;;;;;;;;6.00;3.00;;;;;20.61;51.58;101894.97;5058702;28;45344;-87
2021/08/14 03:56:20;;;;;;;;;6.00;4.00;;;;;20.64;51.61;101892.28;5058625;28;46994;-84
2021/08/14 03:58:46;;;;;;;;;6.00;4.33;;;;;20.63;51.75;101897.63;5058834;28;45298;-85
2021/08/14 04:01:11;;;;;;;;;3.33;3.00;;;;;20.61;51.78;101894.97;5058744;28;45292;-85
2021/08/14 04:03:37;;;;;;;;;7.00;4.00;;;;;20.61;51.60;101892.28;5059208;28;45390;-89
2021/08/14 04:06:02;;;;;;;;;5.67;3.33;;;;;20.56;51.72;101880.75;5058216;28;46123;-87
2021/08/14 04:08:28;;;;;;;;;5.00;4.00;;;;;20.60;51.81;101895.88;5058789;28;45361;-87
2021/08/14 04:10:53;;;;;;;;;5.33;4.67;;;;;20.59;51.56;101889.63;5058720;28;45286;-88
2021/08/14 04:13:19;;;;;;;;;4.00;4.00;;;;;20.57;52.28;101888.75;5059026;28;45344;-88
2021/08/14 04:15:44;;;;;;;;;5.00;5.00;;;;;20.56;51.72;101889.63;5058574;28;46485;-86
2021/08/14 04:18:10;;;;;;;;;7.00;4.00;;;;;20.56;51.57;101889.63;5056607;28;45472;-87
2021/08/14 04:20:35;;;;;;;;;7.33;4.33;;;;;20.54;51.64;101890.56;5058103;28;45359;-86
2021/08/14 04:23:01;;;;;;;;;5.33;4.00;;;;;20.44;51.76;101863.91;5058654;28;45597;-86
2021/08/14 04:25:27;;;;;;;;;6.33;5.67;;;;;20.47;51.93;101879.91;5058497;28;45683;-85
2021/08/14 04:27:52;;;;;;;;;5.00;3.33;;;;;20.50;51.97;101879.00;5058627;28;45373;-85
2021/08/14 04:30:18;;;;;;;;;6.33;4.33;;;;;20.40;52.09;101866.59;5058999;28;45421;-89
2021/08/14 04:32:43;;;;;;;;;7.00;6.00;;;;;20.44;52.30;101871.91;5057783;28;45329;-88
2021/08/14 04:35:11;;;;;;;;;6.67;6.00;;;;;20.45;52.17;101876.34;5058339;28;45306;-87
2021/08/14 04:37:37;;;;;;;;;5.00;4.00;;;;;20.45;52.20;101873.69;5057633;28;45185;-85
2021/08/14 04:40:04;;;;;;;;;5.00;5.00;;;;;20.45;52.28;101876.34;5057801;28;45315;-85
2021/08/14 04:42:30;;;;;;;;;6.33;5.00;;;;;20.36;52.35;101865.72;5058074;28;45429;-86
2021/08/14 04:44:55;;;;;;;;;7.00;5.33;;;;;20.35;52.12;101858.59;5057663;28;45593;-85
2021/08/14 04:47:20;;;;;;;;;8.67;4.00;;;;;20.39;52.60;101863.03;5058060;28;45427;-87
2021/08/14 04:49:46;;;;;;;;;7.67;4.67;;;;;20.39;52.21;101864.84;5058157;28;45650;-86
2021/08/14 04:52:11;;;;;;;;;4.00;4.00;;;;;20.38;52.22;101863.94;5058936;28;45646;-86
2021/08/14 04:54:37;;;;;;;;;5.67;4.33;;;;;20.34;52.39;101856.84;5057084;28;47612;-86
2021/08/14 04:57:02;;;;;;;;;6.00;6.00;;;;;20.38;52.63;101861.28;5059835;28;45323;-89
2021/08/14 04:59:28;;;;;;;;;5.00;3.33;;;;;20.34;52.61;101856.84;5061417;28;45446;-90
2021/08/14 05:01:53;;;;;;;;;6.33;5.67;;;;;20.35;52.61;101861.28;5066046;28;45307;-89
2021/08/14 05:04:19;;;;;;;;;5.33;4.00;;;;;20.35;52.72;101866.63;5065831;28;45636;-85
2021/08/14 05:06:44;;;;;;;;;11.33;6.67;;;;;20.32;52.69;101858.63;5069860;28;45290;-85
2021/08/14 05:09:10;;;;;;;;;4.33;4.33;;;;;20.33;52.81;101865.72;5074070;28;45485;-84
2021/08/14 05:11:35;;;;;;;;;11.00;5.00;;;;;20.32;52.76;101862.19;5073754;28;45189;-84
2021/08/14 05:14:00;;;;;;;;;6.33;5.67;;;;;20.32;52.82;101863.97;5064820;28;46297;-84
2021/08/14 05:16:26;;;;;;;;;9.00;6.33;;;;;20.31;53.01;101867.53;5061624;28;45475;-85
2021/08/14 05:18:52;;;;;;;;;5.33;4.00;;;;;20.31;52.77;101873.75;5057413;28;45259;-85
2021/08/14 05:21:17;;;;;;;;;7.67;4.67;;;;;20.23;53.18;101857.78;5057857;28;45501;-85
2021/08/14 05:23:43;;;;;;;;;8.00;6.00;;;;;20.31;53.04;101867.53;5057203;28;46384;-87
2021/08/14 05:26:08;;;;;;;;;9.00;6.00;;;;;20.28;53.03;101865.78;5056998;28;45230;-84
2021/08/14 05:28:34;;;;;;;;;6.67;4.33;;;;;20.29;53.21;101867.53;5057381;28;45428;-85
2021/08/14 05:30:59;;;;;;;;;6.67;5.67;;;;;20.27;53.49;101860.44;5055823;28;45425;-85
2021/08/14 05:33:25;;;;;;;;;5.33;3.33;;;;;20.30;53.28;101871.09;5056920;28;46326;-85
2021/08/14 05:35:50;;;;;;;;;8.33;6.67;;;;;20.28;52.97;101854.22;5057633;28;45329;-85
2021/08/14 05:38:16;;;;;;;;;5.00;5.00;;;;;20.31;53.46;101870.19;5057174;28;45339;-89
2021/08/14 05:40:41;;;;;;;;;8.00;4.67;;;;;20.29;53.43;101867.53;5057334;28;45421;-89
2021/08/14 05:43:07;;;;;;;;;5.33;4.33;;;;;20.32;53.13;101880.00;5057214;28;46220;-87
2021/08/14 05:45:32;;;;;;;;;6.00;6.00;;;;;20.32;53.41;101880.00;5056904;28;45555;-86
2021/08/14 05:48:01;;;;;;;;;8.33;5.33;;;;;20.33;53.11;101889.75;5057046;28;45393;-81
2021/08/14 05:50:27;;;;;;;;;4.33;4.33;;;;;20.32;53.24;101888.00;5058575;28;45363;-79
2021/08/14 05:52:52;;;;;;;;;6.00;4.67;;;;;20.32;53.09;101886.22;5059483;28;46385;-80
2021/08/14 05:55:17;;;;;;;;;5.33;4.00;;;;;20.34;53.07;101883.53;5059612;28;45340;-79
2021/08/14 05:57:43;;;;;;;;;5.67;5.00;;;;;20.34;53.08;101888.88;5059804;28;45252;-79
2021/08/14 06:00:09;;;;;;;;;8.00;5.00;;;;;20.36;53.13;101884.44;5058768;28;45255;-78
2021/08/14 06:02:34;;;;;;;;;9.67;4.33;;;;;20.37;53.27;101888.84;5059194;28;45408;-79
2021/08/14 06:04:59;;;;;;;;;6.00;6.00;;;;;20.39;53.23;101897.75;5059141;28;45318;-79
2021/08/14 06:07:25;;;;;;;;;7.33;6.00;;;;;20.40;53.32;101896.88;5059540;28;45240;-79
2021/08/14 06:09:50;;;;;;;;;12.00;5.00;;;;;20.40;53.51;101894.19;5059696;28;45380;-79
2021/08/14 06:12:16;;;;;;;;;7.00;4.33;;;;;20.42;53.70;101902.19;5059231;28;45853;-80
2021/08/14 06:14:41;;;;;;;;;5.67;5.00;;;;;20.43;53.59;101898.63;5059245;28;45429;-80
2021/08/14 06:17:07;;;;;;;;;4.33;4.33;;;;;20.43;53.30;101899.50;5059418;28;45304;-79
2021/08/14 06:19:32;;;;;;;;;6.00;6.00;;;;;20.39;53.37;101892.41;5059204;28;45327;-79
2021/08/14 06:21:58;;;;;;;;;7.00;5.00;;;;;20.43;53.11;101899.50;5059014;28;45365;-79
2021/08/14 06:24:23;;;;;;;;;8.33;5.67;;;;;20.41;53.83;101898.63;5058770;28;45330;-80
2021/08/14 06:26:48;;;;;;;;;8.00;5.00;;;;;20.43;53.75;101896.84;5058963;28;45667;-80
2021/08/14 06:29:14;;;;;;;;;5.67;5.67;;;;;20.43;53.16;101899.50;5059446;28;45359;-80
2021/08/14 06:31:39;;;;;;;;;7.00;6.00;;;;;20.44;53.17;101900.41;5058769;28;45897;-80
2021/08/14 06:34:05;;;;;;;;;7.00;5.67;;;;;20.42;53.34;101897.75;5058891;28;45323;-79
2021/08/14 06:36:31;;;;;;;;;8.00;5.00;;;;;20.41;53.29;101901.28;5058884;28;45276;-80
2021/08/14 06:38:56;;;;;;;;;10.00;4.67;;;;;20.44;53.88;101914.66;5059224;28;45339;-80
2021/08/14 06:41:22;;;;;;;;;5.00;5.00;;;;;20.43;53.18;101904.84;5058661;28;45953;-79
2021/08/14 06:43:47;;;;;;;;;5.33;5.33;;;;;20.44;53.40;101906.63;5059044;28;45216;-80
2021/08/14 06:46:12;;;;;;;;;8.67;4.33;;;;;20.42;53.23;101897.75;5058900;28;45627;-80
2021/08/14 06:48:38;;;;;;;;;4.00;4.00;;;;;20.46;53.32;101899.50;5058748;28;45321;-80
2021/08/14 06:51:03;;;;;;;;;6.67;5.67;;;;;20.46;53.72;101899.50;5058509;28;46169;-79
2021/08/14 06:53:29;;;;;;;;;9.00;5.00;;;;;20.50;53.18;101900.38;5058691;28;45526;-80
2021/08/14 06:55:55;;;;;;;;;7.00;4.67;;;;;20.50;52.85;101900.38;5058784;28;45322;-80
2021/08/14 06:58:20;;;;;;;;;6.33;4.67;;;;;20.52;53.28;101903.03;5058743;28;45259;-80
2021/08/14 07:00:45;;;;;;;;;7.00;3.33;;;;;20.53;53.35;101899.47;5057971;28;45438;-79
2021/08/14 07:03:11;;;;;;;;;6.67;3.67;;;;;20.53;52.84;101908.38;5058242;28;45338;-80
2021/08/14 07:05:40;;;;;;;;;6.00;4.00;;;;;20.54;53.21;101903.94;5058655;28;46021;-79
2021/08/14 07:08:06;;;;;;;;;6.33;5.00;;;;;20.54;52.74;101898.59;5058670;28;45421;-79
2021/08/14 07:10:32;;;;;;;;;7.67;5.00;;;;;20.54;51.75;101893.25;5058155;28;45315;-78
2021/08/14 07:12:57;;;;;;;;;5.00;3.00;;;;;20.57;52.76;101903.88;5057767;28;45400;-78
2021/08/14 07:15:23;;;;;;;;;5.00;4.67;;;;;20.58;52.94;101897.66;5058457;28;45377;-78
2021/08/14 07:17:48;;;;;;;;;8.33;4.67;;;;;20.60;52.77;101898.53;5058567;28;45252;-78
2021/08/14 07:20:14;;;;;;;;;4.33;4.33;;;;;20.62;52.46;101896.75;5057775;28;46115;-78
2021/08/14 07:22:40;;;;;;;;;7.33;4.00;;;;;20.62;52.01;101898.53;5057970;28;45367;-78
2021/08/14 07:25:06;;;;;;;;;5.00;4.00;;;;;20.65;52.20;101902.06;5058390;28;45376;-78
2021/08/14 07:27:31;;;;;;;;;6.67;3.00;;;;;20.67;52.18;101897.59;5058320;28;45510;-78
2021/08/14 07:29:57;;;;;;;;;4.33;4.00;;;;;20.70;52.28;101902.03;5057681;28;46912;-78
2021/08/14 07:32:22;;;;;;;;;7.00;4.00;;;;;20.74;51.74;101903.78;5057725;28;45390;-80
2021/08/14 07:34:48;;;;;;;;;6.67;4.33;;;;;20.75;51.24;101899.34;5058307;28;45445;-79
2021/08/14 07:37:13;;;;;;;;;4.00;3.00;;;;;20.76;51.96;101896.66;5058061;28;45405;-79
2021/08/14 07:39:38;;;;;;;;;4.00;4.00;;;;;20.78;51.90;101891.28;5057723;28;46262;-79
2021/08/14 07:42:04;;;;;;;;;6.33;5.00;;;;;20.80;51.91;101886.81;5057592;28;45482;-80
2021/08/14 07:44:29;;;;;;;;;6.00;5.00;;;;;20.78;52.10;101888.63;5057878;28;45474;-79
2021/08/14 07:46:55;;;;;;;;;4.33;4.00;;;;;20.87;51.78;101893.91;5057998;28;45318;-79
2021/08/14 07:49:20;;;;;;;;;6.00;3.00;;;;;20.89;51.40;101899.22;5057555;28;45999;-79
2021/08/14 07:51:45;;;;;;;;;5.67;4.00;;;;;20.92;51.76;101897.41;5057939;28;45326;-79
2021/08/14 07:54:11;;;;;;;;;4.00;4.00;;;;;20.94;51.29;101894.72;5056411;28;45196;-78
2021/08/14 07:56:36;;;;;;;;;3.00;2.33;;;;;20.98;50.42;101887.63;5057969;28;45386;-78
2021/08/14 07:59:02;;;;;;;;;4.00;4.00;;;;;21.01;49.84;101895.59;5061200;28;46028;-85
2021/08/14 08:01:27;;;;;;;;;3.33;3.33;;;;;21.00;49.08;101881.38;5066134;28;45283;-85
2021/08/14 08:03:52;;;;;;;;;2.67;2.00;;;;;21.06;49.44;101888.44;5064741;28;45350;-82
2021/08/14 08:06:18;;;;;;;;;3.00;3.00;;;;;21.07;49.60;101876.84;5061054;28;45265;-83
2021/08/14 08:08:43;;;;;;;;;5.33;2.00;;;;;21.10;48.87;101875.94;5061450;28;46131;-82
2021/08/14 08:11:09;;;;;;;;;3.00;2.33;;;;;21.10;48.97;101871.47;5060310;28;45181;-82
2021/08/14 08:13:34;;;;;;;;;3.00;3.00;;;;;21.12;49.08;101863.44;5059910;28;45964;-84
2021/08/14 08:15:59;;;;;;;;;3.00;3.00;;;;;21.21;49.48;101875.84;5060341;28;45393;-85
2021/08/14 08:18:25;;;;;;;;;8.00;4.67;;;;;21.22;48.61;101870.47;5059814;28;45635;-84
2021/08/14 08:20:51;;;;;;;;;4.33;4.00;;;;;21.20;49.33;101863.38;5060306;28;46026;-83
2021/08/14 08:23:16;;;;;;;;;4.67;3.00;;;;;21.31;50.08;101874.84;5060620;28;45386;-84
2021/08/14 08:25:43;;;;;;;;;5.00;3.00;;;;;21.33;49.72;101870.38;5062787;28;45477;-89
2021/08/14 08:28:08;;;;;;;;;3.67;3.67;;;;;21.38;49.40;101873.00;5064554;28;45587;-83
2021/08/14 08:30:34;;;;;;;;;4.00;4.00;;;;;21.40;49.67;101869.44;5061740;28;45513;-83
2021/08/14 08:32:59;;;;;;;;;5.00;3.00;;;;;21.47;49.42;101872.03;5060203;28;45212;-82
2021/08/14 08:35:25;;;;;;;;;4.67;2.00;;;;;21.52;49.18;101862.16;5059924;28;45307;-86
2021/08/14 08:37:50;;;;;;;;;3.67;3.67;;;;;21.57;48.78;101868.38;5059061;28;45366;-88
2021/08/14 08:40:17;;;;;;;;;5.00;3.67;;;;;21.64;48.56;101872.72;5059673;28;45218;-84
2021/08/14 08:42:45;;;;;;;;;4.00;4.00;;;;;21.74;48.88;101864.63;5059328;28;45258;-86
2021/08/14 08:45:11;;;;;;;;;4.00;4.00;;;;;21.89;49.71;101868.03;5058974;28;45363;-84
2021/08/14 08:47:43;;;;;;;;;7.33;4.00;;;;;22.09;49.59;101866.00;5057720;28;45345;-85
2021/08/14 08:50:10;;;;;;;;;5.33;5.00;;;;;22.36;48.14;101851.38;5058881;28;45236;-83
2021/08/14 08:52:37;;;;;;;;;6.67;4.00;;;;;22.76;47.91;101866.84;5059301;28;45405;-87
2021/08/14 08:55:03;;;;;;;;;4.67;4.67;;;;;23.06;48.89;101861.00;5059197;28;45453;-84
2021/08/14 08:57:29;;;;;;;;;6.33;4.67;;;;;23.39;47.63;101855.09;5058344;28;45385;-85
2021/08/14 08:59:54;;;;;;;;;6.00;3.33;;;;;23.77;45.90;101855.28;5059049;28;45373;-86
2021/08/14 09:02:28;;;;;;;;;3.33;3.33;;;;;24.16;46.27;101850.88;5059253;28;45273;-84
2021/08/14 09:05:21;;;;;;;;;7.33;6.67;;;;;24.58;45.84;101851.75;5059379;28;45388;-88
2021/08/14 09:07:48;;;;;;;;;8.67;5.00;;;;;24.96;45.24;101849.00;5058749;28;45388;-86
2021/08/14 09:10:25;;;;;;;;;6.00;5.00;;;;;25.35;45.17;101852.53;5058966;28;45469;-84
2021/08/14 09:12:51;;;;;;;;;5.00;5.00;;;;;25.67;43.31;101846.25;5058136;28;45350;-83
2021/08/14 09:15:29;;;;;;;;;7.33;7.33;;;;;26.07;42.56;101845.13;5058525;28;45208;-84
2021/08/14 09:18:02;;;;;;;;;7.33;7.00;;;;;26.39;42.39;101837.91;5057440;28;46651;-86
2021/08/14 09:20:29;;;;;;;;;7.67;6.00;;;;;26.74;41.14;101847.53;5057059;28;45581;-84
2021/08/14 09:23:02;;;;;;;;;7.67;5.00;;;;;27.04;40.19;101845.63;5057713;28;45534;-82
2021/08/14 09:25:40;;;;;;;;;6.00;5.00;;;;;27.40;40.45;101843.53;5062358;28;45308;-87
2021/08/14 09:28:06;;;;;;;;;5.67;5.00;;;;;27.75;40.62;101848.59;5064634;28;46068;-85
2021/08/14 09:30:44;;;;;;;;;6.33;4.33;;;;;28.11;39.40;101851.75;5064413;28;45251;-84
2021/08/14 09:33:10;;;;;;;;;4.67;4.00;;;;;28.39;39.11;101843.38;5064940;28;45386;-86
2021/08/14 09:35:36;;;;;;;;;5.67;4.00;;;;;28.70;39.29;101833.16;5065167;28;45305;-84
2021/08/14 09:38:09;;;;;;;;;6.33;4.33;;;;;29.01;38.44;101837.25;5062747;28;46421;-82
2021/08/14 09:40:43;;;;;;;;;8.00;6.00;;;;;29.35;38.72;101844.84;5065070;28;45336;-87
2021/08/14 09:43:09;;;;;;;;;5.33;5.00;;;;;29.64;38.37;101841.75;5064325;28;45342;-82
2021/08/14 09:45:36;;;;;;;;;6.00;6.00;;;;;29.86;37.15;101840.78;5064718;28;45245;-83
2021/08/14 09:48:15;;;;;;;;;5.00;5.00;;;;;30.12;36.96;101831.38;5064748;28;45350;-86
2021/08/14 09:50:41;;;;;;;;;4.67;4.67;;;;;30.39;36.25;101838.28;5064204;28;45442;-84
2021/08/14 09:53:11;;;;;;;;;6.00;4.00;;;;;30.61;36.76;101843.50;5063851;28;45370;-83
2021/08/14 09:55:36;;;;;;;;;6.33;5.00;;;;;30.83;36.20;101845.13;5063897;28;45351;-81
2021/08/14 09:58:03;;;;;;;;;4.67;4.67;;;;;30.99;35.28;101830.78;5063845;28;46244;-82
2021/08/14 10:00:30;;;;;;;;;7.33;4.67;;;;;31.23;34.49;101844.03;5063791;28;45405;-81
2021/08/14 10:03:00;;;;;;;;;6.33;5.00;;;;;31.36;34.04;101833.38;5063707;28;45403;-83
2021/08/14 10:05:25;;;;;;;;;4.33;4.33;;;;;31.56;33.71;101845.00;5063933;28;45346;-83
2021/08/14 10:07:51;;;;;;;;;8.00;4.00;;;;;31.72;31.36;101834.19;5063712;28;46347;-85
2021/08/14 10:10:18;;;;;;;;;4.33;4.33;;;;;31.86;34.12;101832.53;5064526;28;45330;-83
2021/08/14 10:12:45;;;;;;;;;6.33;5.00;;;;;32.05;32.98;101832.38;5064946;28;45350;-85
2021/08/14 10:15:11;;;;;;;;;5.00;4.00;;;;;32.20;32.96;101825.19;5066801;28;45299;-82
2021/08/14 10:17:37;;;;;;;;;3.33;3.00;;;;;32.43;33.22;101819.34;5066367;28;46050;-82
2021/08/14 10:20:05;;;;;;;;;5.67;4.33;;;;;32.63;33.65;101820.06;5063186;28;45387;-84
2021/08/14 10:22:31;;;;;;;;;5.00;3.00;;;;;32.78;31.83;101819.16;5063719;28;45260;-83
2021/08/14 10:24:56;;;;;;;;;6.33;5.33;;;;;32.94;31.05;101820.91;5066088;28;45493;-86
2021/08/14 10:27:22;;;;;;;;;6.00;4.33;;;;;33.04;31.04;101808.47;5066566;28;46021;-82
2021/08/14 10:29:51;;;;;;;;;8.33;4.33;;;;;33.22;30.94;101812.91;5067624;28;45292;-84
2021/08/14 10:32:32;;;;;;;;;3.33;3.33;;;;;33.37;29.15;101808.34;5065293;28;45351;-83
2021/08/14 10:35:20;;;;;;;;;7.00;4.00;;;;;33.53;31.48;101805.50;5068920;28;45188;-82
2021/08/14 10:37:50;;;;;;;;;5.67;4.67;;;;;33.65;28.72;101798.41;5064980;28;47688;-82
2021/08/14 10:40:17;;;;;;;;;5.33;5.00;;;;;33.76;29.99;101795.00;5065456;28;45231;-83
2021/08/14 10:42:54;;;;;;;;;4.33;4.33;;;;;33.90;30.02;101793.22;5060713;28;45177;-84
2021/08/14 10:45:38;;;;;;;;;4.00;4.00;;;;;34.02;28.73;101795.13;5059973;28;45526;-83
2021/08/14 10:48:05;;;;;;;;;6.67;4.67;;;;;34.10;29.39;101788.31;5059606;28;45699;-84
2021/08/14 10:50:30;;;;;;;;;5.33;4.33;;;;;34.18;29.73;101794.13;5059333;28;45377;-82
2021/08/14 10:53:10;;;;;;;;;2.50;2.50;;;;;34.32;29.26;101787.75;5060059;28;45500;-85
2021/08/14 10:55:38;;;;;;;;;7.67;5.00;;;;;34.43;28.35;101785.19;5060279;28;45392;-85
2021/08/14 10:58:16;;;;;;;;;7.33;5.67;;;;;34.53;29.20;101788.13;5059617;28;45304;-85
2021/08/14 11:00:42;;;;;;;;;8.33;5.33;;;;;34.63;29.16;101782.03;5060270;28;45324;-82
2021/08/14 11:03:09;;;;;;;;;6.33;4.33;;;;;34.74;28.42;101784.88;5060348;28;45311;-82
2021/08/14 11:05:37;;;;;;;;;2.67;2.67;;;;;34.83;29.29;101782.53;5060610;28;45422;-83
2021/08/14 11:08:03;;;;;;;;;6.00;5.00;;;;;34.82;29.25;101772.59;5060563;28;47125;-82
2021/08/14 11:10:33;;;;;;;;;5.33;5.00;;;;;34.96;28.48;101777.97;5059692;28;45242;-83
2021/08/14 11:12:58;;;;;;;;;4.00;4.00;;;;;35.03;28.54;101769.31;5060310;28;45389;-82
2021/08/14 11:15:40;;;;;;;;;6.00;5.67;;;;;35.10;27.76;101770.63;5059832;28;45356;-84
2021/08/14 11:18:06;;;;;;;;;5.67;5.67;;;;;35.16;28.74;101772.03;5059315;28;46171;-84
2021/08/14 11:20:35;;;;;;;;;7.00;6.00;;;;;35.20;28.51;101766.22;5059277;28;45381;-83